Time;durP1;ratioP1;P1;durP2;ratioP2;P2;SDS_P1;SDS_P2;PMS_P1;PMS_P2;Temp;Humidity;BMP_temperature;BMP_pressure;BME280_temperature;BME280_humidity;BME280_pressure;Samples;Min_cycle;Max_cycle;Signal;HPM_P1;HPM_P2
2022/10/01 00:01:59;;;;;;;11.35;1.75;;;12.80;99.90;;;;;;4977214;28;20070;-72
2022/10/01 00:04:30;;;;;;;12.73;2.55;;;12.90;99.90;;;;;;4977111;28;20114;-71
2022/10/01 00:07:01;;;;;;;16.42;2.38;;;12.90;99.90;;;;;;4977407;28;20021;-71
2022/10/01 00:09:30;;;;;;;10.20;2.05;;;12.90;99.90;;;;;;4977127;28;20022;-72
2022/10/01 00:11:59;;;;;;;14.85;2.78;;;13.10;99.90;;;;;;4987313;28;20029;-73
2022/10/01 00:14:28;;;;;;;8.55;2.22;;;13.10;99.90;;;;;;4985855;28;20357;-71
2022/10/01 00:16:56;;;;;;;11.13;1.98;;;13.00;99.90;;;;;;4985326;28;20026;-74
2022/10/01 00:19:23;;;;;;;8.32;1.85;;;13.10;99.90;;;;;;4996086;28;20088;-68
2022/10/01 00:21:51;;;;;;;9.57;2.00;;;13.00;99.90;;;;;;4996544;28;20080;-72
2022/10/01 00:24:19;;;;;;;6.35;1.10;;;13.00;99.90;;;;;;4995864;28;20033;-69
2022/10/01 00:26:47;;;;;;;5.65;1.70;;;12.90;99.90;;;;;;4994506;28;20386;-71
2022/10/01 00:29:15;;;;;;;3.58;0.90;;;12.90;99.90;;;;;;4986098;28;20408;-80
2022/10/01 00:31:43;;;;;;;12.40;1.65;;;13.00;99.90;;;;;;4984424;28;20035;-72
2022/10/01 00:34:14;;;;;;;8.48;1.92;;;13.10;99.90;;;;;;4976467;28;20031;-72
2022/10/01 00:36:42;;;;;;;6.28;1.27;;;13.10;99.90;;;;;;4976701;28;20063;-72
2022/10/01 00:39:11;;;;;;;15.55;3.35;;;13.20;99.90;;;;;;4993912;28;20057;-71
2022/10/01 00:41:39;;;;;;;6.22;1.98;;;13.20;99.90;;;;;;4996259;28;20081;-69
2022/10/01 00:44:46;;;;;;;11.05;2.05;;;13.10;99.90;;;;;;4995122;28;20546;-71
2022/10/01 00:47:13;;;;;;;3.25;1.33;;;12.90;99.90;;;;;;4985836;28;20015;-69
2022/10/01 00:49:42;;;;;;;3.50;1.00;;;13.00;99.90;;;;;;4987487;28;20026;-75
2022/10/01 00:52:16;;;;;;;5.75;1.08;;;13.00;99.90;;;;;;4996095;28;20030;-69
2022/10/01 00:54:48;;;;;;;4.90;1.30;;;13.00;99.90;;;;;;4996107;28;20022;-75
2022/10/01 00:57:23;;;;;;;7.53;1.35;;;13.10;99.90;;;;;;4996432;28;20034;-69
2022/10/01 00:59:54;;;;;;;7.15;1.10;;;13.10;99.90;;;;;;4996040;28;20026;-73
2022/10/01 01:02:22;;;;;;;7.65;1.20;;;13.10;99.90;;;;;;4996030;28;20022;-71
2022/10/01 01:04:50;;;;;;;9.02;1.25;;;13.10;99.90;;;;;;4995821;28;20434;-74
2022/10/01 01:07:17;;;;;;;6.18;1.55;;;13.30;99.90;;;;;;4995930;28;20072;-68
2022/10/01 01:09:52;;;;;;;8.20;1.23;;;13.40;99.90;;;;;;4996091;28;20025;-69
2022/10/01 01:12:40;;;;;;;7.15;1.10;;;13.30;99.90;;;;;;4995991;28;20069;-70
2022/10/01 01:15:17;;;;;;;3.83;1.15;;;13.40;99.90;;;;;;4984959;28;20479;-67
2022/10/01 01:17:51;;;;;;;5.45;0.90;;;13.50;99.90;;;;;;4984604;28;20077;-71
2022/10/01 01:20:31;;;;;;;7.30;1.00;;;13.50;99.90;;;;;;4984374;28;20034;-68
2022/10/01 01:23:17;;;;;;;4.75;1.60;;;13.60;99.90;;;;;;4983751;28;20026;-71
2022/10/01 01:25:44;;;;;;;;;;;13.60;99.90;;;;;;4993857;28;20105;-68
2022/10/01 01:28:24;;;;;;;10.40;2.28;;;13.50;99.90;;;;;;4995649;28;19906;-70
2022/10/01 01:30:55;;;;;;;7.13;1.45;;;13.40;99.90;;;;;;4995267;28;20047;-71
2022/10/01 01:33:27;;;;;;;7.63;1.20;;;13.30;99.90;;;;;;4995325;28;20061;-68
2022/10/01 01:36:08;;;;;;;5.40;1.08;;;13.10;99.90;;;;;;4995236;28;20029;-73
2022/10/01 01:38:42;;;;;;;5.07;1.27;;;13.10;99.90;;;;;;4995294;28;20026;-72
2022/10/01 01:41:13;;;;;;;7.10;2.15;;;13.00;99.90;;;;;;4991826;28;20030;-75
2022/10/01 01:43:44;;;;;;;8.10;1.42;;;13.00;99.90;;;;;;4984171;28;20031;-69
2022/10/01 01:46:16;;;;;;;10.18;2.17;;;12.90;99.90;;;;;;4985434;28;20045;-70
2022/10/01 01:48:49;;;;;;;5.32;1.98;;;13.00;99.90;;;;;;4988619;28;20033;-70
2022/10/01 01:51:20;;;;;;;5.78;0.93;;;13.00;99.90;;;;;;4983514;28;20041;-70
2022/10/01 01:53:48;;;;;;;5.45;1.30;;;13.10;99.90;;;;;;4984251;28;20023;-68
2022/10/01 01:56:16;;;;;;;10.60;1.25;;;13.00;99.90;;;;;;4984853;28;20018;-70
2022/10/01 01:58:46;;;;;;;9.60;0.90;;;13.10;99.90;;;;;;4984868;28;20022;-68
2022/10/01 02:01:40;;;;;;;7.95;1.13;;;13.10;99.90;;;;;;4985318;28;20476;-70
2022/10/01 02:04:43;;;;;;;7.13;1.85;;;13.10;99.90;;;;;;4992345;28;20022;-67
2022/10/01 02:07:51;;;;;;;5.40;1.45;;;13.10;99.90;;;;;;4980687;28;20054;-70
2022/10/01 02:10:36;;;;;;;5.43;2.85;;;13.10;99.90;;;;;;4992204;28;20033;-70
2022/10/01 02:13:17;;;;;;;7.47;1.08;;;13.20;99.90;;;;;;4993480;28;20030;-67
2022/10/01 02:16:13;;;;;;;6.00;1.25;;;13.30;99.90;;;;;;4993997;28;20399;-69
2022/10/01 02:19:01;;;;;;;4.85;0.95;;;13.40;99.90;;;;;;4992464;28;20113;-70
2022/10/01 02:21:34;;;;;;;3.15;0.68;;;13.30;99.90;;;;;;4991903;28;20080;-68
2022/10/01 02:24:13;;;;;;;3.70;0.88;;;13.60;99.90;;;;;;4992407;28;20057;-71
2022/10/01 02:26:42;;;;;;;3.05;0.85;;;13.70;99.90;;;;;;4984834;28;20027;-70
2022/10/01 02:29:15;;;;;;;2.90;0.77;;;13.80;99.90;;;;;;4983372;28;20105;-71
2022/10/01 02:31:44;;;;;;;4.57;0.52;;;13.90;99.90;;;;;;4984561;28;20135;-72
2022/10/01 02:34:14;;;;;;;3.63;0.60;;;13.90;99.90;;;;;;4979909;28;20427;-71
2022/10/01 02:36:44;;;;;;;5.18;1.02;;;13.90;99.90;;;;;;4974218;28;20034;-70
2022/10/01 02:39:15;;;;;;;3.03;0.98;;;13.90;99.90;;;;;;4974329;28;20027;-79
2022/10/01 02:41:47;;;;;;;1.65;0.50;;;13.90;99.90;;;;;;4974539;28;20542;-69
2022/10/01 02:44:21;;;;;;;2.15;0.57;;;13.90;99.90;;;;;;4974914;28;20039;-68
2022/10/01 02:46:56;;;;;;;3.78;0.85;;;14.00;99.90;;;;;;4975147;28;20085;-71
2022/10/01 02:49:27;;;;;;;2.03;0.47;;;14.10;99.90;;;;;;4974688;28;20050;-68
2022/10/01 02:52:20;;;;;;;5.35;1.00;;;14.30;99.90;;;;;;4974221;28;20531;-69
2022/10/01 02:54:57;;;;;;;4.78;1.10;;;14.50;99.90;;;;;;4979697;28;20030;-68
2022/10/01 02:57:28;;;;;;;4.10;1.15;;;14.70;99.90;;;;;;4985963;28;20383;-68
2022/10/01 03:00:03;;;;;;;5.65;1.15;;;14.90;99.90;;;;;;4987996;28;20065;-68
2022/10/01 03:02:32;;;;;;;4.38;1.17;;;15.00;99.90;;;;;;4982797;28;20031;-74
2022/10/01 03:05:00;;;;;;;3.60;0.75;;;14.90;99.90;;;;;;4982660;28;20022;-71
2022/10/01 03:07:33;;;;;;;4.85;0.80;;;14.80;99.90;;;;;;4984479;28;20109;-79
2022/10/01 03:10:04;;;;;;;3.47;0.73;;;14.70;99.90;;;;;;4984247;28;20404;-76
2022/10/01 03:12:32;;;;;;;6.15;1.23;;;14.60;99.90;;;;;;4994426;28;20459;-77
2022/10/01 03:15:00;;;;;;;4.13;0.90;;;14.60;99.90;;;;;;4989327;28;20049;-72
2022/10/01 03:17:28;;;;;;;6.85;1.23;;;14.60;99.90;;;;;;4978529;28;20037;-68
2022/10/01 03:19:56;;;;;;;4.95;1.17;;;14.50;99.90;;;;;;4977993;28;20480;-66
2022/10/01 03:22:24;;;;;;;0.95;0.40;;;14.50;99.90;;;;;;4977823;28;20046;-68
2022/10/01 03:24:53;;;;;;;3.78;1.23;;;14.50;99.90;;;;;;4976306;28;20027;-74
2022/10/01 03:27:21;;;;;;;4.80;0.47;;;14.40;99.90;;;;;;4976462;28;20033;-66
2022/10/01 03:29:49;;;;;;;5.22;1.08;;;14.30;99.90;;;;;;4976026;28;20408;-69
2022/10/01 03:32:18;;;;;;;3.03;1.20;;;14.40;99.90;;;;;;4976238;28;20046;-69
2022/10/01 03:34:45;;;;;;;5.20;0.70;;;14.60;99.90;;;;;;4976136;28;20075;-67
2022/10/01 03:37:13;;;;;;;3.65;0.98;;;14.80;99.90;;;;;;4975748;28;20063;-66
2022/10/01 03:39:40;;;;;;;1.58;0.60;;;14.90;99.90;;;;;;4975744;28;20053;-67
2022/10/01 03:42:07;;;;;;;8.98;1.23;;;14.80;99.90;;;;;;4974500;28;20408;-67
2022/10/01 03:44:35;;;;;;;5.32;1.05;;;14.80;99.90;;;;;;4975751;28;20023;-66
2022/10/01 03:47:02;;;;;;;3.88;0.85;;;14.90;99.90;;;;;;4975627;28;20035;-69
2022/10/01 03:49:29;;;;;;;6.80;1.50;;;14.90;99.90;;;;;;4975719;28;20022;-67
2022/10/01 03:51:57;;;;;;;3.80;1.33;;;14.80;99.90;;;;;;4976243;28;20042;-74
2022/10/01 03:54:25;;;;;;;3.38;1.05;;;15.00;99.90;;;;;;4977653;28;20033;-71
2022/10/01 03:56:52;;;;;;;7.05;1.00;;;15.00;99.90;;;;;;4977867;28;20023;-66
2022/10/01 03:59:22;;;;;;;4.72;1.02;;;15.00;99.90;;;;;;4977651;28;20528;-76
2022/10/01 04:01:49;;;;;;;5.70;1.17;;;15.00;99.90;;;;;;4977504;28;20031;-70
2022/10/01 04:04:17;;;;;;;4.13;0.95;;;14.90;99.90;;;;;;4977545;28;20027;-67
2022/10/01 04:06:44;;;;;;;1.95;0.60;;;14.70;99.90;;;;;;4977436;28;20542;-67
2022/10/01 04:09:11;;;;;;;6.78;0.90;;;14.60;99.90;;;;;;4977639;28;20050;-69
2022/10/01 04:11:39;;;;;;;5.47;2.03;;;14.50;99.90;;;;;;4977513;28;20019;-67
2022/10/01 04:14:06;;;;;;;3.78;0.93;;;14.50;99.90;;;;;;4977295;28;20081;-66
2022/10/01 04:16:35;;;;;;;3.80;0.68;;;14.30;99.90;;;;;;4977391;28;20023;-67
2022/10/01 04:19:03;;;;;;;5.28;1.70;;;14.20;99.90;;;;;;4977231;28;20436;-69
2022/10/01 04:21:30;;;;;;;5.82;1.10;;;14.10;99.90;;;;;;4977349;28;20053;-70
2022/10/01 04:23:58;;;;;;;4.05;0.73;;;14.10;99.90;;;;;;4976889;28;20035;-70
2022/10/01 04:26:25;;;;;;;3.92;0.93;;;14.20;99.90;;;;;;4977098;28;20027;-67
2022/10/01 04:28:53;;;;;;;6.07;1.10;;;14.50;99.90;;;;;;4976986;28;20089;-67
2022/10/01 04:31:26;;;;;;;9.23;0.80;;;14.80;99.90;;;;;;4976878;28;20043;-67
2022/10/01 04:33:55;;;;;;;6.45;1.20;;;15.10;99.90;;;;;;4977095;28;20093;-67
2022/10/01 04:36:24;;;;;;;2.85;0.47;;;15.40;99.90;;;;;;4977090;28;20031;-68
2022/10/01 04:38:53;;;;;;;3.20;1.13;;;15.10;99.90;;;;;;4977066;28;20487;-70
2022/10/01 04:41:21;;;;;;;4.15;1.00;;;14.90;99.90;;;;;;4976751;28;20539;-67
2022/10/01 04:43:49;;;;;;;7.15;0.95;;;14.60;99.90;;;;;;4976657;28;20031;-72
2022/10/01 04:46:16;;;;;;;8.15;1.52;;;14.40;99.90;;;;;;4976806;28;20388;-67
2022/10/01 04:48:43;;;;;;;7.68;1.08;;;14.30;99.90;;;;;;4976926;28;20031;-67
2022/10/01 04:51:11;;;;;;;3.22;0.95;;;14.20;99.90;;;;;;4976470;28;20027;-74
2022/10/01 04:53:38;;;;;;;6.15;0.60;;;14.20;99.90;;;;;;4976529;28;20472;-66
2022/10/01 04:56:06;;;;;;;8.55;1.15;;;14.20;99.90;;;;;;4976861;28;20022;-69
2022/10/01 04:58:36;;;;;;;3.42;0.60;;;14.20;99.90;;;;;;4976535;28;20043;-76
2022/10/01 05:01:04;;;;;;;4.88;1.20;;;14.10;99.90;;;;;;4975694;28;20459;-67
2022/10/01 05:03:31;;;;;;;6.35;0.93;;;14.10;99.90;;;;;;4976496;28;20397;-75
2022/10/01 05:05:58;;;;;;;5.72;1.35;;;14.00;99.90;;;;;;4976547;28;20023;-71
2022/10/01 05:08:26;;;;;;;7.85;1.38;;;14.00;99.90;;;;;;4976297;28;20027;-70
2022/10/01 05:10:53;;;;;;;4.47;1.15;;;14.00;99.90;;;;;;4976300;28;20161;-73
2022/10/01 05:13:20;;;;;;;9.38;1.45;;;14.10;99.90;;;;;;4976208;28;20038;-67
2022/10/01 05:15:51;;;;;;;8.38;1.23;;;14.20;99.90;;;;;;4976453;28;20404;-68
2022/10/01 05:18:18;;;;;;;5.55;0.95;;;14.30;99.90;;;;;;4976375;28;20128;-71
2022/10/01 05:20:46;;;;;;;3.75;1.10;;;14.30;99.90;;;;;;4976305;28;20022;-68
2022/10/01 05:23:13;;;;;;;4.85;1.02;;;14.30;99.90;;;;;;4975942;28;20046;-76
2022/10/01 05:25:41;;;;;;;6.20;1.77;;;14.20;99.90;;;;;;4976186;28;20055;-74
2022/10/01 05:28:08;;;;;;;2.90;0.50;;;14.20;99.90;;;;;;4976342;28;20376;-69
2022/10/01 05:30:36;;;;;;;2.50;0.60;;;14.20;99.90;;;;;;4975616;28;20054;-68
2022/10/01 05:33:04;;;;;;;5.75;0.60;;;14.20;99.90;;;;;;4974772;28;20027;-71
2022/10/01 05:35:32;;;;;;;2.47;0.40;;;14.30;99.90;;;;;;4975027;28;20027;-76
2022/10/01 05:38:04;;;;;;;3.85;0.80;;;14.40;99.90;;;;;;4975854;28;20065;-68
2022/10/01 05:40:32;;;;;;;3.83;0.90;;;14.40;99.90;;;;;;4975811;28;20050;-75
2022/10/01 05:43:01;;;;;;;3.22;0.70;;;14.30;99.90;;;;;;4975617;28;20042;-76
2022/10/01 05:45:30;;;;;;;4.65;0.85;;;14.30;99.90;;;;;;4975516;28;20022;-67
2022/10/01 05:48:05;;;;;;;7.95;1.20;;;14.30;99.90;;;;;;4975554;28;20054;-70
2022/10/01 05:50:39;;;;;;;2.63;0.70;;;14.30;99.90;;;;;;4975529;28;20069;-69
2022/10/01 05:53:07;;;;;;;3.75;1.50;;;14.30;99.90;;;;;;4974470;28;20039;-72
2022/10/01 05:55:35;;;;;;;5.93;1.05;;;14.10;99.90;;;;;;4975086;28;20022;-68
2022/10/01 05:58:09;;;;;;;6.00;0.77;;;14.10;99.90;;;;;;4975279;28;20039;-66
2022/10/01 06:00:38;;;;;;;6.53;1.17;;;14.10;99.90;;;;;;4986192;28;20480;-66
2022/10/01 06:03:06;;;;;;;5.22;0.68;;;14.10;99.90;;;;;;4993494;28;20030;-67
2022/10/01 06:05:35;;;;;;;3.85;1.17;;;14.20;99.90;;;;;;4994501;28;20037;-64
2022/10/01 06:08:05;;;;;;;4.78;0.98;;;14.10;99.90;;;;;;4993263;28;20026;-65
2022/10/01 06:10:33;;;;;;;3.42;1.17;;;14.10;99.90;;;;;;4991977;28;20038;-66
2022/10/01 06:13:04;;;;;;;3.30;1.02;;;14.20;99.90;;;;;;4992304;28;20117;-69
2022/10/01 06:15:40;;;;;;;7.45;1.65;;;14.20;99.90;;;;;;4989848;28;20022;-73
2022/10/01 06:18:09;;;;;;;2.42;0.82;;;14.20;99.90;;;;;;4982617;28;20439;-68
2022/10/01 06:20:38;;;;;;;0.95;0.50;;;14.20;99.90;;;;;;4983138;28;20022;-71
2022/10/01 06:23:10;;;;;;;4.18;0.93;;;14.20;99.90;;;;;;4980183;28;20031;-68
2022/10/01 06:25:38;;;;;;;3.10;0.57;;;14.20;99.90;;;;;;4974189;28;20089;-66
2022/10/01 06:28:07;;;;;;;1.67;0.93;;;14.10;99.90;;;;;;4974801;28;20062;-68
2022/10/01 06:30:37;;;;;;;6.25;0.70;;;14.10;99.90;;;;;;4973059;28;20055;-69
2022/10/01 06:33:09;;;;;;;2.63;0.55;;;14.10;99.90;;;;;;4974588;28;20042;-66
2022/10/01 06:35:47;;;;;;;5.43;1.08;;;14.00;99.90;;;;;;4974610;28;20504;-70
2022/10/01 06:38:16;;;;;;;4.85;1.23;;;14.10;99.90;;;;;;4974779;28;20388;-73
2022/10/01 06:40:44;;;;;;;6.22;0.90;;;14.10;99.90;;;;;;4974485;28;20496;-71
2022/10/01 06:43:11;;;;;;;8.75;1.10;;;14.10;99.90;;;;;;4976574;28;20038;-70
2022/10/01 06:45:41;;;;;;;5.28;0.85;;;14.00;99.90;;;;;;4994065;28;20480;-69
2022/10/01 06:48:13;;;;;;;4.07;0.70;;;14.00;99.90;;;;;;4994176;28;20022;-70
2022/10/01 06:50:42;;;;;;;8.25;1.05;;;14.10;99.90;;;;;;4994191;28;20029;-67
2022/10/01 06:53:10;;;;;;;10.05;1.55;;;14.00;99.90;;;;;;4994168;28;20026;-69
2022/10/01 06:55:39;;;;;;;3.58;0.50;;;14.00;99.90;;;;;;4994075;28;20030;-66
2022/10/01 06:58:17;;;;;;;2.85;0.93;;;14.10;99.90;;;;;;4994102;28;20034;-67
2022/10/01 07:00:44;;;;;;;5.45;0.80;;;14.00;99.90;;;;;;4993979;28;20023;-65
2022/10/01 07:03:16;;;;;;;2.17;0.85;;;14.10;99.90;;;;;;4993843;28;20030;-71
2022/10/01 07:05:43;;;;;;;6.03;0.75;;;14.00;99.90;;;;;;4994016;28;20022;-66
2022/10/01 07:08:11;;;;;;;4.68;0.90;;;13.90;99.90;;;;;;4994109;28;20054;-71
2022/10/01 07:10:40;;;;;;;4.00;1.00;;;13.90;99.90;;;;;;4993786;28;20019;-65
2022/10/01 07:13:12;;;;;;;5.97;1.35;;;13.70;99.90;;;;;;4994039;28;20118;-66
2022/10/01 07:15:40;;;;;;;6.45;1.25;;;13.50;99.90;;;;;;4993745;28;20027;-73
2022/10/01 07:18:08;;;;;;;2.72;0.65;;;13.30;99.90;;;;;;4993880;28;20031;-65
2022/10/01 07:20:38;;;;;;;4.47;0.70;;;13.10;99.90;;;;;;4993957;28;20034;-68
2022/10/01 07:23:07;;;;;;;6.20;0.95;;;13.00;99.90;;;;;;4993691;28;20418;-70
2022/10/01 07:25:37;;;;;;;9.85;1.05;;;12.90;99.90;;;;;;4990506;28;20035;-67
2022/10/01 07:28:06;;;;;;;4.20;1.13;;;12.80;99.90;;;;;;4982904;28;20118;-70
2022/10/01 07:30:34;;;;;;;7.60;1.58;;;12.70;99.90;;;;;;4983822;28;20099;-65
2022/10/01 07:33:01;;;;;;;7.25;1.17;;;12.70;99.90;;;;;;4983743;28;20038;-72
2022/10/01 07:35:28;;;;;;;4.13;1.42;;;12.70;99.90;;;;;;4982186;28;20030;-65
2022/10/01 07:37:55;;;;;;;8.18;1.40;;;12.70;99.90;;;;;;4983875;28;20050;-70
2022/10/01 07:40:28;;;;;;;7.38;1.83;;;12.60;99.90;;;;;;4983985;28;20070;-68
2022/10/01 07:42:57;;;;;;;3.90;1.13;;;12.60;99.90;;;;;;4982514;28;20062;-65
2022/10/01 07:45:26;;;;;;;8.30;1.20;;;12.60;99.90;;;;;;4982698;28;20019;-69
2022/10/01 07:47:59;;;;;;;5.43;1.20;;;12.50;99.90;;;;;;4984501;28;20023;-74
2022/10/01 07:50:29;;;;;;;5.03;1.20;;;12.50;99.90;;;;;;4984207;28;20030;-67
2022/10/01 07:52:58;;;;;;;4.60;1.30;;;12.40;99.90;;;;;;4982911;28;20046;-67
2022/10/01 07:55:27;;;;;;;13.18;1.65;;;12.40;99.90;;;;;;4982321;28;20575;-67
2022/10/01 07:57:55;;;;;;;5.45;1.40;;;12.40;99.90;;;;;;4983923;28;20031;-68
2022/10/01 08:00:25;;;;;;;9.07;1.38;;;12.30;99.90;;;;;;4987647;28;20029;-69
2022/10/01 08:02:55;;;;;;;4.28;2.00;;;12.30;99.90;;;;;;4989488;28;20236;-71
2022/10/01 08:05:31;;;;;;;6.90;1.73;;;12.30;99.90;;;;;;4993076;28;20022;-70
2022/10/01 08:08:08;;;;;;;4.10;1.00;;;12.30;99.90;;;;;;4994381;28;20676;-72
2022/10/01 08:10:38;;;;;;;4.05;1.38;;;12.20;99.90;;;;;;4994043;28;20059;-66
2022/10/01 08:13:15;;;;;;;6.03;2.55;;;12.30;99.90;;;;;;4993604;28;20479;-67
2022/10/01 08:15:44;;;;;;;10.57;2.35;;;12.30;99.90;;;;;;4995502;28;20479;-70
2022/10/01 08:18:12;;;;;;;4.40;1.27;;;12.30;99.90;;;;;;4995878;28;20058;-74
2022/10/01 08:20:40;;;;;;;4.95;1.20;;;12.30;99.90;;;;;;4994510;28;20042;-67
2022/10/01 08:23:09;;;;;;;3.10;0.80;;;12.30;99.90;;;;;;4994474;28;20116;-69
2022/10/01 08:25:38;;;;;;;3.30;0.80;;;12.20;99.90;;;;;;4994614;28;20022;-67
2022/10/01 08:28:07;;;;;;;3.92;1.00;;;12.20;99.90;;;;;;4995283;28;20022;-67
2022/10/01 08:30:38;;;;;;;3.05;1.30;;;12.20;99.90;;;;;;4985749;28;20041;-68
2022/10/01 08:33:06;;;;;;;4.20;0.90;;;12.10;99.90;;;;;;4986713;28;20015;-67
2022/10/01 08:35:33;;;;;;;2.10;1.00;;;12.00;99.90;;;;;;4977128;28;20035;-69
2022/10/01 08:38:05;;;;;;;4.18;1.00;;;12.10;99.90;;;;;;4976943;28;20110;-74
2022/10/01 08:40:49;;;;;;;3.25;0.95;;;12.00;99.90;;;;;;4977064;28;20066;-66
2022/10/01 08:43:50;;;;;;;5.82;1.13;;;11.90;99.90;;;;;;4976840;28;20042;-78
2022/10/01 08:46:24;;;;;;;3.55;1.30;;;11.80;99.90;;;;;;4965634;28;20035;-67
2022/10/01 08:49:07;;;;;;;2.05;1.08;;;11.80;99.90;;;;;;4976681;28;20027;-77
2022/10/01 08:51:44;;;;;;;4.25;1.45;;;11.80;99.90;;;;;;4977249;28;20023;-67
2022/10/01 08:54:36;;;;;;;1.75;1.13;;;11.80;99.90;;;;;;4993135;28;20019;-71
2022/10/01 08:57:09;;;;;;;1.83;0.80;;;11.70;99.90;;;;;;4995533;28;20046;-72
2022/10/01 08:59:43;;;;;;;2.95;1.20;;;11.70;99.90;;;;;;4995648;28;20014;-71
2022/10/01 09:02:28;;;;;;;4.47;1.10;;;11.60;99.90;;;;;;4995617;28;20546;-68
2022/10/01 09:04:59;;;;;;;3.35;1.10;;;11.60;99.90;;;;;;4995947;28;20035;-67
2022/10/01 09:07:51;;;;;;;1.67;0.90;;;11.50;99.90;;;;;;4995145;28;20026;-66
2022/10/01 09:10:47;;;;;;;2.45;0.95;;;11.50;99.90;;;;;;4991560;28;20057;-66
2022/10/01 09:13:32;;;;;;;5.13;1.10;;;11.50;99.90;;;;;;4993647;28;20029;-68
2022/10/01 09:16:15;;;;;;;4.75;1.30;;;11.40;99.90;;;;;;4993724;28;20076;-66
2022/10/01 09:19:09;;;;;;;3.83;1.08;;;11.40;99.90;;;;;;4993645;28;20034;-69
2022/10/01 09:21:39;;;;;;;2.03;0.80;;;11.40;99.90;;;;;;4991754;28;20388;-67
2022/10/01 09:24:23;;;;;;;4.75;1.52;;;11.40;99.90;;;;;;4995202;28;20022;-68
2022/10/01 09:26:51;;;;;;;3.95;1.02;;;11.30;99.90;;;;;;4995186;28;20030;-70
2022/10/01 09:29:35;;;;;;;5.50;1.05;;;11.20;99.90;;;;;;4994760;28;20019;-67
2022/10/01 09:32:04;;;;;;;4.97;1.55;;;11.20;99.90;;;;;;4994707;28;20192;-66
2022/10/01 09:34:41;;;;;;;5.72;1.75;;;11.30;99.90;;;;;;4984669;28;20058;-71
2022/10/01 09:37:13;;;;;;;6.97;1.35;;;11.20;99.90;;;;;;4983977;28;20496;-69
2022/10/01 09:40:36;;;;;;;6.40;1.45;;;11.20;99.90;;;;;;4989002;28;20094;-67
2022/10/01 09:43:07;;;;;;;7.00;2.22;;;11.10;99.90;;;;;;4950447;28;20038;-68
2022/10/01 09:45:36;;;;;;;9.75;1.55;;;11.20;99.90;;;;;;4994351;28;20097;-67
2022/10/01 09:48:23;;;;;;;3.60;1.10;;;11.10;99.90;;;;;;4994597;28;20018;-66
2022/10/01 09:50:57;;;;;;;4.22;1.20;;;11.20;99.90;;;;;;4994637;28;20022;-71
2022/10/01 09:53:45;;;;;;;5.30;2.35;;;11.20;99.90;;;;;;4994404;28;20030;-68
2022/10/01 09:56:23;;;;;;;9.10;1.38;;;11.20;99.90;;;;;;4992411;28;20026;-76
2022/10/01 09:58:55;;;;;;;3.42;1.30;;;11.30;99.90;;;;;;4993544;28;20023;-72
2022/10/01 10:01:35;;;;;;;9.75;1.88;;;11.30;99.90;;;;;;4994433;28;20417;-68
2022/10/01 10:04:02;;;;;;;5.88;1.52;;;11.30;99.90;;;;;;4991554;28;20058;-67
2022/10/01 10:06:30;;;;;;;10.80;2.22;;;11.40;99.90;;;;;;4993221;28;20031;-71
2022/10/01 10:09:00;;;;;;;7.40;1.70;;;11.40;99.90;;;;;;4990699;28;20081;-68
2022/10/01 10:11:32;;;;;;;4.40;2.38;;;11.40;99.90;;;;;;4993216;28;20050;-69
2022/10/01 10:14:03;;;;;;;6.05;2.25;;;11.50;99.90;;;;;;4990829;28;20026;-66
2022/10/01 10:16:36;;;;;;;2.72;1.30;;;11.50;99.90;;;;;;4993454;28;20451;-67
2022/10/01 10:19:10;;;;;;;3.70;2.00;;;11.50;99.90;;;;;;4988437;28;20100;-67
2022/10/01 10:21:49;;;;;;;2.72;1.63;;;11.50;99.90;;;;;;4992973;28;20019;-80
2022/10/01 10:24:26;;;;;;;3.22;1.48;;;11.40;99.90;;;;;;4993243;28;20045;-67
2022/10/01 10:26:57;;;;;;;4.82;1.55;;;11.30;99.90;;;;;;4992692;28;20484;-67
2022/10/01 10:29:29;;;;;;;9.85;2.03;;;11.20;99.90;;;;;;4992605;28;20026;-73
2022/10/01 10:31:58;;;;;;;2.63;1.58;;;11.20;99.90;;;;;;4992086;28;20420;-67
2022/10/01 10:34:37;;;;;;;4.38;2.35;;;11.10;99.90;;;;;;4993018;28;20383;-77
2022/10/01 10:37:12;;;;;;;5.78;3.20;;;11.10;99.90;;;;;;4993109;28;20534;-67
2022/10/01 10:39:40;;;;;;;;;;;11.10;99.90;;;;;;4993722;28;20022;-67
2022/10/01 10:42:13;;;;;;;7.00;2.58;;;11.00;99.90;;;;;;4992739;28;19996;-67
2022/10/01 10:44:44;;;;;;;7.38;2.10;;;11.00;99.90;;;;;;4993101;28;20027;-71
2022/10/01 10:47:15;;;;;;;5.57;1.52;;;11.00;99.90;;;;;;4993243;28;20018;-68
2022/10/01 10:49:56;;;;;;;11.02;1.85;;;11.00;99.90;;;;;;4990007;28;20058;-66
2022/10/01 10:52:36;;;;;;;3.35;1.63;;;11.00;99.90;;;;;;4989639;28;20109;-67
2022/10/01 10:55:30;;;;;;;3.20;1.75;;;11.00;99.90;;;;;;4991429;28;20050;-67
2022/10/01 10:58:11;;;;;;;4.25;1.83;;;11.00;99.90;;;;;;4990825;28;20030;-72
2022/10/01 11:00:49;;;;;;;4.30;1.35;;;10.90;99.90;;;;;;4990660;28;20511;-66
2022/10/01 11:03:23;;;;;;;3.90;1.33;;;10.90;99.90;;;;;;4979042;28;20093;-67
2022/10/01 11:05:55;;;;;;;3.03;1.13;;;10.80;99.90;;;;;;4974325;28;20383;-69
2022/10/01 11:08:26;;;;;;;5.97;1.50;;;10.80;99.90;;;;;;4974468;28;20027;-67
2022/10/01 11:11:08;;;;;;;6.45;1.92;;;10.90;99.90;;;;;;4973272;28;20503;-66
2022/10/01 11:13:58;;;;;;;7.43;2.50;;;10.90;99.90;;;;;;4973950;28;20030;-69
2022/10/01 11:16:46;;;;;;;2.90;1.65;;;11.00;99.90;;;;;;4968864;28;20027;-69
2022/10/01 11:19:28;;;;;;;5.25;2.22;;;11.10;99.90;;;;;;4973168;28;20030;-76
2022/10/01 11:22:26;;;;;;;7.47;2.20;;;11.10;99.90;;;;;;4981309;28;20026;-67
2022/10/01 11:25:05;;;;;;;5.97;2.58;;;11.10;99.90;;;;;;4982135;28;20160;-66
2022/10/01 11:28:02;;;;;;;7.07;2.42;;;11.10;99.90;;;;;;4978759;28;20369;-74
2022/10/01 11:30:44;;;;;;;8.27;2.78;;;11.10;99.90;;;;;;4991352;28;20130;-78
2022/10/01 11:33:49;;;;;;;9.07;3.13;;;11.10;99.90;;;;;;4974394;28;20023;-73
2022/10/01 11:36:23;;;;;;;5.95;2.72;;;11.20;99.90;;;;;;4951356;28;20035;-73
2022/10/01 11:39:09;;;;;;;5.22;2.22;;;11.20;99.90;;;;;;4982651;28;20030;-72
2022/10/01 11:42:01;;;;;;;3.25;1.63;;;11.10;99.90;;;;;;4992594;28;20014;-78
2022/10/01 11:44:34;;;;;;;6.85;2.17;;;11.20;99.90;;;;;;4991772;28;20026;-65
2022/10/01 11:47:19;;;;;;;13.15;6.60;;;11.10;99.90;;;;;;4993663;28;20073;-66
2022/10/01 11:49:52;;;;;;;16.27;9.70;;;11.00;99.90;;;;;;4992910;28;20015;-72
2022/10/01 11:52:47;;;;;;;16.33;9.18;;;11.00;99.90;;;;;;4993707;28;20025;-76
2022/10/01 11:58:51;;;;;;;13.68;10.35;;;10.90;99.90;;;;;;4991998;28;20383;-69
2022/10/01 12:01:24;;;;;;;16.33;10.35;;;10.70;99.90;;;;;;4992796;28;20542;-74
2022/10/01 12:03:54;;;;;;;10.68;5.10;;;10.70;99.90;;;;;;4992655;28;20122;-74
2022/10/01 12:06:39;;;;;;;8.73;4.07;;;10.70;99.90;;;;;;4992239;28;20039;-66
2022/10/01 12:09:25;;;;;;;10.77;5.35;;;10.60;99.90;;;;;;4992443;28;20528;-66
2022/10/01 12:12:11;;;;;;;8.07;5.68;;;10.50;99.90;;;;;;4992424;28;20255;-66
2022/10/01 12:14:48;;;;;;;6.38;3.38;;;10.40;99.90;;;;;;4982051;28;20086;-66
2022/10/01 12:17:16;;;;;;;4.97;3.25;;;10.50;99.90;;;;;;4976254;28;20027;-70
2022/10/01 12:19:50;;;;;;;7.10;2.55;;;10.40;99.90;;;;;;4976932;28;20071;-66
2022/10/01 12:22:25;;;;;;;3.08;1.63;;;10.30;99.90;;;;;;4977117;28;20072;-75
2022/10/01 12:24:53;;;;;;;6.88;2.55;;;10.40;99.90;;;;;;4976126;28;20151;-72
2022/10/01 12:27:29;;;;;;;10.20;2.03;;;10.40;99.90;;;;;;4977439;28;20031;-66
2022/10/01 12:30:15;;;;;;;2.88;1.75;;;10.40;99.90;;;;;;4975463;28;20039;-66
2022/10/01 12:32:57;;;;;;;10.68;2.28;;;10.40;99.90;;;;;;4978650;28;20527;-75
2022/10/01 12:35:34;;;;;;;5.18;2.17;;;10.40;99.90;;;;;;4975357;28;20054;-65
2022/10/01 12:38:19;;;;;;;8.10;2.35;;;10.40;99.90;;;;;;4975992;28;20110;-70
2022/10/01 12:41:03;;;;;;;3.63;1.70;;;10.40;99.90;;;;;;4976179;28;20483;-73
2022/10/01 12:43:52;;;;;;;5.60;2.25;;;10.40;99.90;;;;;;4976189;28;20115;-66
2022/10/01 12:46:38;;;;;;;4.75;2.38;;;10.40;99.90;;;;;;4976024;28;20023;-70
2022/10/01 12:49:38;;;;;;;5.30;2.20;;;10.40;99.90;;;;;;4979076;28;20023;-67
2022/10/01 12:52:33;;;;;;;7.22;2.53;;;10.40;99.90;;;;;;4945121;28;20047;-66
2022/10/01 12:55:08;;;;;;;10.25;2.20;;;10.50;99.90;;;;;;4976860;28;20033;-66
2022/10/01 12:57:41;;;;;;;11.88;2.55;;;10.50;99.90;;;;;;4975585;28;20025;-67
2022/10/01 13:00:19;;;;;;;7.07;2.60;;;10.40;99.90;;;;;;4975651;28;20066;-74
2022/10/01 13:02:54;;;;;;;9.13;2.75;;;10.50;99.90;;;;;;4974992;28;20444;-66
2022/10/01 13:05:30;;;;;;;6.93;2.13;;;10.50;99.90;;;;;;4976183;28;20018;-75
2022/10/01 13:08:15;;;;;;;5.95;2.13;;;10.50;99.90;;;;;;4975312;28;20042;-67
2022/10/01 13:10:59;;;;;;;7.53;2.72;;;10.50;99.90;;;;;;4976751;28;20475;-66
2022/10/01 13:13:34;;;;;;;7.63;3.33;;;10.50;99.90;;;;;;4977289;28;20440;-71
2022/10/01 13:16:25;;;;;;;7.78;2.42;;;10.50;99.90;;;;;;4978111;28;20042;-66
2022/10/01 13:19:13;;;;;;;6.45;2.38;;;10.60;99.90;;;;;;4991072;28;20022;-73
2022/10/01 13:21:56;;;;;;;4.38;1.52;;;10.50;99.90;;;;;;4992529;28;20056;-76
2022/10/01 13:24:33;;;;;;;8.90;2.03;;;10.60;99.90;;;;;;4991691;28;20376;-66